Time;durP1;ratioP1;P1;durP2;ratioP2;P2;SDS_P1;SDS_P2;PMS_P1;PMS_P2;Temp;Humidity;BMP_temperature;BMP_pressure;BME280_temperature;BME280_humidity;BME280_pressure;Samples;Min_cycle;Max_cycle;Signal;HPM_P1;HPM_P2
2022/11/30 00:00:15;;;;;;;;;;;;;;;;;;5024542;28;4916;-67
2022/11/30 00:02:41;;;;;;;;;;;;;;;;;;5022354;28;4755;-67
2022/11/30 00:05:06;;;;;;;;;;;;;;;;;;5029157;28;3364;-66
2022/11/30 00:07:32;;;;;;;;;;;;;;;;;;5031140;28;5007;-67
2022/11/30 00:09:57;;;;;;;;;;;;;;;;;;5018032;28;5073;-66
2022/11/30 00:12:22;;;;;;;;;;;;;;;;;;5030782;28;5112;-66
2022/11/30 00:14:48;;;;;;;;;;;;;;;;;;5022721;28;5118;-66
2022/11/30 00:17:13;;;;;;;;;;;;;;;;;;5020654;28;3141;-66
2022/11/30 00:19:38;;;;;;;;;;;;;;;;;;5021741;28;4922;-66
2022/11/30 00:22:04;;;;;;;;;;;;;;;;;;5031070;28;4945;-66
2022/11/30 00:24:29;;;;;;;;;;;;;;;;;;5031143;28;5060;-66
2022/11/30 00:26:54;;;;;;;;;;;;;;;;;;5031033;28;4919;-66
2022/11/30 00:29:19;;;;;;;;;;;;;;;;;;5030950;28;4549;-65
2022/11/30 00:31:45;;;;;;;;;;;;;;;;;;5014045;28;1718;-66
2022/11/30 00:34:10;;;;;;;;;;;;;;;;;;5015342;28;5103;-66
2022/11/30 00:36:36;;;;;;;;;;;;;;;;;;5028819;28;4979;-67
2022/11/30 00:39:01;;;;;;;;;;;;;;;;;;5028727;28;5066;-67
2022/11/30 00:41:26;;;;;;;;;;;;;;;;;;5029761;28;5024;-67
2022/11/30 00:43:51;;;;;;;;;;;;;;;;;;5031024;28;1362;-66
2022/11/30 00:46:17;;;;;;;;;;;;;;;;;;5028934;28;4887;-67
2022/11/30 00:48:42;;;;;;;;;;;;;;;;;;5019201;28;4771;-67
2022/11/30 00:51:07;;;;;;;;;;;;;;;;;;5005615;28;5103;-67
2022/11/30 00:53:33;;;;;;;;;;;;;;;;;;5010443;28;5046;-67
2022/11/30 00:55:58;;;;;;;;;;;;;;;;;;5009490;28;2093;-66
2022/11/30 00:58:23;;;;;;;;;;;;;;;;;;5027775;28;4946;-67
2022/11/30 01:00:48;;;;;;;;;;;;;;;;;;5029256;28;4961;-66
2022/11/30 01:03:14;;;;;;;;;;;;;;;;;;5028933;28;4844;-66
2022/11/30 01:05:39;;;;;;;;;;;;;;;;;;5027302;28;5596;-66
2022/11/30 01:08:05;;;;;;;;;;;;;;;;;;5031188;28;1081;-66
2022/11/30 01:10:30;;;;;;;;;;;;;;;;;;5028510;28;5029;-67
2022/11/30 01:12:55;;;;;;;;;;;;;;;;;;5030306;28;4955;-67
2022/11/30 01:15:21;;;;;;;;;;;;;;;;;;5027638;28;5307;-67
2022/11/30 01:17:46;;;;;;;;;;;;;;;;;;5028220;28;5159;-67
2022/11/30 01:20:11;;;;;;;;;;;;;;;;;;5028415;28;1138;-66
2022/11/30 01:22:36;;;;;;;;;;;;;;;;;;5026983;28;4750;-67
2022/11/30 01:25:02;;;;;;;;;;;;;;;;;;5028211;28;4952;-67
2022/11/30 01:27:27;;;;;;;;;;;;;;;;;;5027848;28;5122;-67
2022/11/30 01:29:52;;;;;;;;;;;;;;;;;;5025973;28;5138;-67
2022/11/30 01:32:18;;;;;;;;;;;;;;;;;;5012761;28;4493;-66
2022/11/30 01:34:43;;;;;;;;;;;;;;;;;;5030456;28;1072;-67
2022/11/30 01:37:08;;;;;;;;;;;;;;;;;;5029627;28;4633;-67
2022/11/30 01:39:33;;;;;;;;;;;;;;;;;;5026653;28;6394;-67
2022/11/30 01:41:59;;;;;;;;;;;;;;;;;;5029453;28;5420;-66
2022/11/30 01:44:27;;;;;;;;;;;;;;;;;;5029561;28;4558;-66
2022/11/30 01:46:52;;;;;;;;;;;;;;;;;;5025536;28;3172;-66
2022/11/30 01:49:19;;;;;;;;;;;;;;;;;;5029407;28;5080;-66
2022/11/30 01:51:44;;;;;;;;;;;;;;;;;;5027418;28;4649;-65
2022/11/30 01:54:10;;;;;;;;;;;;;;;;;;5027547;28;4924;-65
2022/11/30 01:56:36;;;;;;;;;;;;;;;;;;5027450;28;5210;-65
2022/11/30 01:59:01;;;;;;;;;;;;;;;;;;5044791;28;1169;-66
2022/11/30 02:01:27;;;;;;;;;;;;;;;;;;5028420;28;4626;-66
2022/11/30 02:03:54;;;;;;;;;;;;;;;;;;5009213;28;4981;-66
2022/11/30 02:06:20;;;;;;;;;;;;;;;;;;5027490;28;5032;-66
2022/11/30 02:08:45;;;;;;;;;;;;;;;;;;5044164;28;4773;-66
2022/11/30 02:11:11;;;;;;;;;;;;;;;;;;5030880;28;3267;-66
2022/11/30 02:13:52;;;;;;;;;;;;;;;;;;5063476;28;4833;-66
2022/11/30 02:16:17;;;;;;;;;;;;;;;;;;5048764;28;4715;-66
2022/11/30 02:18:46;;;;;;;;;;;;;;;;;;5049030;28;5080;-66
2022/11/30 02:21:11;;;;;;;;;;;;;;;;;;5048486;28;4918;-66
2022/11/30 02:23:42;;;;;;;;;;;;;;;;;;5048932;28;4867;-66
2022/11/30 02:26:27;;;;;;;;;;;;;;;;;;5051614;28;2015;-66
2022/11/30 02:28:55;;;;;;;;;;;;;;;;;;5008658;28;5104;-65
2022/11/30 02:31:22;;;;;;;;;;;;;;;;;;5012173;28;4390;-65
2022/11/30 02:33:47;;;;;;;;;;;;;;;;;;5023881;28;4457;-65
2022/11/30 02:36:13;;;;;;;;;;;;;;;;;;5024165;28;4507;-65
2022/11/30 02:38:39;;;;;;;;;;;;;;;;;;5015818;28;5172;-67
2022/11/30 02:41:04;;;;;;;;;;;;;;;;;;5024720;28;1599;-65
2022/11/30 02:43:29;;;;;;;;;;;;;;;;;;5011064;28;5123;-66
2022/11/30 02:46:01;;;;;;;;;;;;;;;;;;5017594;28;5079;-66
2022/11/30 02:48:39;;;;;;;;;;;;;;;;;;5009246;28;5010;-66
2022/11/30 02:51:04;;;;;;;;;;;;;;;;;;5038394;28;5338;-66
2022/11/30 02:53:30;;;;;;;;;;;;;;;;;;5032428;28;5361;-66
2022/11/30 02:55:55;;;;;;;;;;;;;;;;;;5022133;28;3255;-66
2022/11/30 02:58:21;;;;;;;;;;;;;;;;;;5021752;28;5787;-66
2022/11/30 03:00:46;;;;;;;;;;;;;;;;;;5008372;28;5146;-67
2022/11/30 03:03:11;;;;;;;;;;;;;;;;;;5008624;28;5398;-67
2022/11/30 03:05:36;;;;;;;;;;;;;;;;;;5014933;28;5105;-67
2022/11/30 03:08:02;;;;;;;;;;;;;;;;;;5026767;28;3215;-67
2022/11/30 03:10:27;;;;;;;;;;;;;;;;;;5017348;28;5269;-66
2022/11/30 03:12:55;;;;;;;;;;;;;;;;;;5012287;28;5379;-64
2022/11/30 03:15:21;;;;;;;;;;;;;;;;;;5025221;28;5080;-65
2022/11/30 03:17:46;;;;;;;;;;;;;;;;;;5013426;28;5059;-66
2022/11/30 03:20:11;;;;;;;;;;;;;;;;;;5032663;28;1029;-66
2022/11/30 03:22:36;;;;;;;;;;;;;;;;;;5019130;28;4801;-66
2022/11/30 03:25:02;;;;;;;;;;;;;;;;;;5024903;28;4672;-67
2022/11/30 03:27:27;;;;;;;;;;;;;;;;;;5029376;28;5098;-66
2022/11/30 03:29:52;;;;;;;;;;;;;;;;;;5012952;28;4949;-66
2022/11/30 03:32:18;;;;;;;;;;;;;;;;;;5013450;28;4550;-66
2022/11/30 03:34:43;;;;;;;;;;;;;;;;;;5023576;28;3244;-66
2022/11/30 03:37:08;;;;;;;;;;;;;;;;;;5012687;28;4602;-66
2022/11/30 03:39:33;;;;;;;;;;;;;;;;;;5023602;28;4971;-66
2022/11/30 03:41:58;;;;;;;;;;;;;;;;;;5014841;28;4575;-66
2022/11/30 03:44:24;;;;;;;;;;;;;;;;;;5021967;28;5172;-65
2022/11/30 03:46:49;;;;;;;;;;;;;;;;;;5019984;28;3232;-66
2022/11/30 03:49:14;;;;;;;;;;;;;;;;;;5017793;28;4550;-66
2022/11/30 03:51:39;;;;;;;;;;;;;;;;;;5026729;28;5107;-66
2022/11/30 03:54:05;;;;;;;;;;;;;;;;;;5020695;28;4855;-65
2022/11/30 03:56:30;;;;;;;;;;;;;;;;;;5030295;28;4721;-65
2022/11/30 03:58:55;;;;;;;;;;;;;;;;;;5018534;28;3366;-65
2022/11/30 04:01:22;;;;;;;;;;;;;;;;;;5013356;28;4848;-65
2022/11/30 04:03:47;;;;;;;;;;;;;;;;;;5035700;28;5149;-66
2022/11/30 04:06:12;;;;;;;;;;;;;;;;;;5016136;28;5504;-65
2022/11/30 04:08:38;;;;;;;;;;;;;;;;;;5025106;28;5187;-65
2022/11/30 04:11:03;;;;;;;;;;;;;;;;;;4985675;28;1996;-66
2022/11/30 04:13:28;;;;;;;;;;;;;;;;;;5010173;28;4526;-65
2022/11/30 04:15:54;;;;;;;;;;;;;;;;;;5018541;28;5815;-66
2022/11/30 04:18:20;;;;;;;;;;;;;;;;;;5029562;28;4984;-66
2022/11/30 04:20:45;;;;;;;;;;;;;;;;;;5021588;28;4523;-66
2022/11/30 04:23:10;;;;;;;;;;;;;;;;;;5003670;28;3201;-65
2022/11/30 04:25:39;;;;;;;;;;;;;;;;;;4993080;28;5313;-65
2022/11/30 04:28:04;;;;;;;;;;;;;;;;;;5002457;28;5103;-65
2022/11/30 04:30:31;;;;;;;;;;;;;;;;;;5007037;28;4521;-65
2022/11/30 04:32:56;;;;;;;;;;;;;;;;;;5004376;28;5197;-65
2022/11/30 04:35:21;;;;;;;;;;;;;;;;;;5026400;28;5381;-65
2022/11/30 04:37:47;;;;;;;;;;;;;;;;;;5008945;28;2080;-66
2022/11/30 04:40:12;;;;;;;;;;;;;;;;;;5026841;28;5431;-65
2022/11/30 04:42:37;;;;;;;;;;;;;;;;;;5030653;28;5023;-65
2022/11/30 04:45:03;;;;;;;;;;;;;;;;;;5028683;28;4452;-66
2022/11/30 04:47:28;;;;;;;;;;;;;;;;;;5019315;28;5039;-65
2022/11/30 04:49:53;;;;;;;;;;;;;;;;;;5011260;28;1985;-66
2022/11/30 04:52:18;;;;;;;;;;;;;;;;;;5027846;28;4723;-65
2022/11/30 04:54:44;;;;;;;;;;;;;;;;;;5029692;28;5001;-65
2022/11/30 04:57:09;;;;;;;;;;;;;;;;;;5029580;28;5041;-65
2022/11/30 04:59:34;;;;;;;;;;;;;;;;;;5029444;28;4514;-65
2022/11/30 05:01:59;;;;;;;;;;;;;;;;;;5013325;28;3180;-65
2022/11/30 05:04:25;;;;;;;;;;;;;;;;;;5028958;28;4786;-65
2022/11/30 05:06:50;;;;;;;;;;;;;;;;;;5029648;28;4895;-65
2022/11/30 05:09:15;;;;;;;;;;;;;;;;;;5013199;28;5291;-65
2022/11/30 05:11:40;;;;;;;;;;;;;;;;;;5030038;28;4446;-65
2022/11/30 05:14:06;;;;;;;;;;;;;;;;;;5011853;28;1968;-65
2022/11/30 05:16:31;;;;;;;;;;;;;;;;;;5008695;28;5030;-65
2022/11/30 05:18:56;;;;;;;;;;;;;;;;;;5028350;28;4644;-65
2022/11/30 05:21:21;;;;;;;;;;;;;;;;;;5029832;28;5525;-66
2022/11/30 05:23:47;;;;;;;;;;;;;;;;;;5030221;28;4967;-65
2022/11/30 05:26:13;;;;;;;;;;;;;;;;;;5030534;28;1319;-65
2022/11/30 05:28:38;;;;;;;;;;;;;;;;;;5027792;28;4979;-65
2022/11/30 05:31:03;;;;;;;;;;;;;;;;;;5014571;28;5082;-65
2022/11/30 05:33:29;;;;;;;;;;;;;;;;;;5025568;28;4853;-65
2022/11/30 05:35:54;;;;;;;;;;;;;;;;;;5025123;28;5068;-65
2022/11/30 05:38:19;;;;;;;;;;;;;;;;;;5029408;28;5273;-65
2022/11/30 05:40:44;;;;;;;;;;;;;;;;;;5030207;28;909;-65
2022/11/30 05:43:10;;;;;;;;;;;;;;;;;;5029253;28;5031;-65
2022/11/30 05:45:35;;;;;;;;;;;;;;;;;;5043369;28;4822;-65
2022/11/30 05:48:00;;;;;;;;;;;;;;;;;;5029224;28;4871;-65
2022/11/30 05:50:25;;;;;;;;;;;;;;;;;;5025564;28;4625;-65
2022/11/30 05:52:53;;;;;;;;;;;;;;;;;;5029381;28;4790;-65
2022/11/30 05:55:19;;;;;;;;;;;;;;;;;;5026834;28;4449;-65
2022/11/30 05:57:44;;;;;;;;;;;;;;;;;;5029351;28;5028;-65
2022/11/30 06:00:09;;;;;;;;;;;;;;;;;;5025735;28;4571;-65
2022/11/30 06:02:35;;;;;;;;;;;;;;;;;;5009769;28;4517;-65
2022/11/30 06:05:00;;;;;;;;;;;;;;;;;;5021717;28;3193;-65
2022/11/30 06:07:25;;;;;;;;;;;;;;;;;;5024678;28;4712;-65
2022/11/30 06:09:50;;;;;;;;;;;;;;;;;;5014956;28;5052;-64
2022/11/30 06:12:16;;;;;;;;;;;;;;;;;;5009716;28;5088;-64
2022/11/30 06:14:41;;;;;;;;;;;;;;;;;;5009421;28;5089;-65
2022/11/30 06:17:07;;;;;;;;;;;;;;;;;;5008786;28;1258;-65
2022/11/30 06:19:32;;;;;;;;;;;;;;;;;;5009061;28;4798;-65
2022/11/30 06:21:57;;;;;;;;;;;;;;;;;;5015618;28;4414;-64
2022/11/30 06:24:22;;;;;;;;;;;;;;;;;;5028800;28;5182;-64
2022/11/30 06:26:48;;;;;;;;;;;;;;;;;;5028357;28;5152;-65
2022/11/30 06:29:13;;;;;;;;;;;;;;;;;;5017744;28;1559;-65
2022/11/30 06:31:38;;;;;;;;;;;;;;;;;;5009151;28;4989;-65
2022/11/30 06:34:03;;;;;;;;;;;;;;;;;;5017222;28;5071;-65
2022/11/30 06:36:30;;;;;;;;;;;;;;;;;;5021391;28;4581;-65
2022/11/30 06:38:55;;;;;;;;;;;;;;;;;;5011246;28;4596;-66
2022/11/30 06:41:20;;;;;;;;;;;;;;;;;;5021959;28;5107;-65
2022/11/30 06:43:46;;;;;;;;;;;;;;;;;;5025165;28;3314;-64
2022/11/30 06:46:11;;;;;;;;;;;;;;;;;;5016211;28;5158;-65
2022/11/30 06:48:36;;;;;;;;;;;;;;;;;;5028394;28;5181;-65
2022/11/30 06:51:05;;;;;;;;;;;;;;;;;;5021174;28;4711;-65
2022/11/30 06:53:30;;;;;;;;;;;;;;;;;;5022474;28;4763;-65
2022/11/30 06:55:56;;;;;;;;;;;;;;;;;;5029308;28;1063;-65
2022/11/30 06:58:21;;;;;;;;;;;;;;;;;;5027168;28;4984;-65
2022/11/30 07:00:46;;;;;;;;;;;;;;;;;;5026260;28;5102;-65
2022/11/30 07:03:11;;;;;;;;;;;;;;;;;;5024584;28;4497;-65
2022/11/30 07:05:41;;;;;;;;;;;;;;;;;;5026281;28;5005;-65
2022/11/30 07:08:07;;;;;;;;;;;;;;;;;;5026671;28;1552;-64
2022/11/30 07:10:32;;;;;;;;;;;;;;;;;;5021919;28;4996;-64
2022/11/30 07:12:57;;;;;;;;;;;;;;;;;;5022095;28;4836;-64
2022/11/30 07:15:22;;;;;;;;;;;;;;;;;;5014447;28;5019;-64
2022/11/30 07:17:48;;;;;;;;;;;;;;;;;;5025818;28;5019;-64
2022/11/30 07:20:13;;;;;;;;;;;;;;;;;;5023680;28;3289;-64
2022/11/30 07:22:38;;;;;;;;;;;;;;;;;;5027126;28;4857;-64
2022/11/30 07:27:48;;;;;;;;;;;;;;;;;;5028399;28;5031;-65
2022/11/30 07:30:13;;;;;;;;;;;;;;;;;;5020292;28;4491;-65
2022/11/30 07:32:38;;;;;;;;;;;;;;;;;;5027770;28;5118;-65
2022/11/30 07:35:04;;;;;;;;;;;;;;;;;;5025903;28;3220;-65
2022/11/30 07:37:29;;;;;;;;;;;;;;;;;;5023915;28;4433;-65
2022/11/30 07:39:54;;;;;;;;;;;;;;;;;;5022485;28;4505;-64
2022/11/30 07:42:21;;;;;;;;;;;;;;;;;;5010519;28;4515;-69
2022/11/30 07:44:46;;;;;;;;;;;;;;;;;;5019016;28;4937;-67
2022/11/30 07:47:12;;;;;;;;;;;;;;;;;;5017951;28;3676;-66
2022/11/30 07:49:38;;;;;;;;;;;;;;;;;;5030035;28;4933;-65
2022/11/30 07:52:04;;;;;;;;;;;;;;;;;;5019406;28;5030;-64
2022/11/30 07:54:29;;;;;;;;;;;;;;;;;;5027971;28;5040;-65
2022/11/30 07:56:54;;;;;;;;;;;;;;;;;;5042445;28;4504;-64
2022/11/30 07:59:20;;;;;;;;;;;;;;;;;;5026688;28;5151;-64
2022/11/30 08:01:45;;;;;;;;;;;;;;;;;;5023685;28;2365;-65
2022/11/30 08:04:12;;;;;;;;;;;;;;;;;;5016086;28;5015;-66
2022/11/30 08:06:37;;;;;;;;;;;;;;;;;;5009737;28;4481;-65
2022/11/30 08:09:03;;;;;;;;;;;;;;;;;;5031318;28;4515;-64
2022/11/30 08:11:29;;;;;;;;;;;;;;;;;;5030930;28;4567;-64
2022/11/30 08:13:54;;;;;;;;;;;;;;;;;;5031529;28;1415;-64
2022/11/30 08:16:20;;;;;;;;;;;;;;;;;;5031069;28;4741;-64
2022/11/30 08:18:46;;;;;;;;;;;;;;;;;;5030734;28;5097;-65
2022/11/30 08:21:12;;;;;;;;;;;;;;;;;;5029328;28;5066;-65
2022/11/30 08:23:41;;;;;;;;;;;;;;;;;;5030640;28;5132;-66
2022/11/30 08:26:10;;;;;;;;;;;;;;;;;;5028123;28;1876;-66
2022/11/30 08:28:35;;;;;;;;;;;;;;;;;;5012640;28;5039;-66
2022/11/30 08:31:02;;;;;;;;;;;;;;;;;;5010327;28;4859;-66
2022/11/30 08:33:27;;;;;;;;;;;;;;;;;;5025147;28;5079;-65
2022/11/30 08:35:52;;;;;;;;;;;;;;;;;;5011804;28;5057;-66
2022/11/30 08:38:17;;;;;;;;;;;;;;;;;;5030735;28;5003;-65
2022/11/30 08:40:43;;;;;;;;;;;;;;;;;;5029992;28;1390;-66
2022/11/30 08:43:08;;;;;;;;;;;;;;;;;;5030769;28;5219;-65
2022/11/30 08:45:33;;;;;;;;;;;;;;;;;;5015791;28;5203;-64
2022/11/30 08:47:59;;;;;;;;;;;;;;;;;;5024087;28;5072;-63
2022/11/30 08:50:24;;;;;;;;;;;;;;;;;;5024818;28;5125;-64
2022/11/30 08:52:50;;;;;;;;;;;;;;;;;;5029454;28;4583;-65
2022/11/30 08:55:15;;;;;;;;;;;;;;;;;;5027720;28;5328;-64
2022/11/30 08:57:40;;;;;;;;;;;;;;;;;;5019175;28;4494;-65
2022/11/30 09:00:06;;;;;;;;;;;;;;;;;;5022631;28;5158;-64
2022/11/30 09:02:31;;;;;;;;;;;;;;;;;;5014721;28;5202;-62
2022/11/30 09:04:56;;;;;;;;;;;;;;;;;;5028805;28;3272;-62
2022/11/30 09:07:22;;;;;;;;;;;;;;;;;;5024879;28;4526;-63
2022/11/30 09:09:47;;;;;;;;;;;;;;;;;;5028024;28;4872;-67
2022/11/30 09:12:12;;;;;;;;;;;;;;;;;;5028584;28;5281;-61
2022/11/30 09:14:37;;;;;;;;;;;;;;;;;;5026920;28;4530;-64
2022/11/30 09:17:03;;;;;;;;;;;;;;;;;;5030126;28;1377;-62
2022/11/30 09:19:28;;;;;;;;;;;;;;;;;;5014406;28;4473;-63
2022/11/30 09:21:54;;;;;;;;;;;;;;;;;;5013276;28;5073;-63
2022/11/30 09:24:19;;;;;;;;;;;;;;;;;;5027485;28;4914;-63
2022/11/30 09:26:45;;;;;;;;;;;;;;;;;;5015875;28;5194;-64
2022/11/30 09:29:10;;;;;;;;;;;;;;;;;;5021248;28;3828;-63
2022/11/30 09:31:35;;;;;;;;;;;;;;;;;;4996281;28;4995;-63
2022/11/30 09:34:00;;;;;;;;;;;;;;;;;;5007488;28;5393;-63
2022/11/30 09:36:26;;;;;;;;;;;;;;;;;;5017832;28;4910;-64
2022/11/30 09:38:51;;;;;;;;;;;;;;;;;;5021183;28;4610;-65
2022/11/30 09:41:35;;;;;;;;;;;;;;;;;;5020669;28;3586;-65
2022/11/30 09:44:07;;;;;;;;;;;;;;;;;;5019544;28;5082;-65
2022/11/30 09:46:37;;;;;;;;;;;;;;;;;;5025987;28;4954;-65
2022/11/30 09:49:17;;;;;;;;;;;;;;;;;;5037136;28;4503;-68
2022/11/30 09:51:43;;;;;;;;;;;;;;;;;;5023403;28;5198;-67
2022/11/30 09:54:10;;;;;;;;;;;;;;;;;;5018804;28;5172;-67
2022/11/30 09:56:37;;;;;;;;;;;;;;;;;;5022154;28;5144;-67
2022/11/30 09:59:23;;;;;;;;;;;;;;;;;;5026493;28;3611;-68
2022/11/30 10:01:48;;;;;;;;;;;;;;;;;;5019277;28;5149;-66
2022/11/30 10:04:19;;;;;;;;;;;;;;;;;;5022100;28;4725;-70
2022/11/30 10:06:47;;;;;;;;;;;;;;;;;;5024566;28;4828;-69
2022/11/30 10:09:26;;;;;;;;;;;;;;;;;;5023992;28;5092;-70
2022/11/30 10:11:59;;;;;;;;;;;;;;;;;;5009369;28;4963;-70
2022/11/30 10:14:47;;;;;;;;;;;;;;;;;;5006695;28;5839;-71
2022/11/30 10:17:25;;;;;;;;;;;;;;;;;;5022856;28;3320;-69
2022/11/30 10:19:53;;;;;;;;;;;;;;;;;;5036530;28;4981;-68
2022/11/30 10:22:34;;;;;;;;;;;;;;;;;;5019502;28;4647;-68
2022/11/30 10:25:13;;;;;;;;;;;;;;;;;;5022506;28;5034;-64
2022/11/30 10:27:41;;;;;;;;;;;;;;;;;;5003746;28;4498;-69
2022/11/30 10:30:21;;;;;;;;;;;;;;;;;;5020488;28;4512;-67
2022/11/30 10:32:47;;;;;;;;;;;;;;;;;;5018754;28;5097;-70
2022/11/30 10:35:19;;;;;;;;;;;;;;;;;;5016951;28;3393;-60
2022/11/30 10:37:44;;;;;;;;;;;;;;;;;;5016901;28;5208;-59
2022/11/30 10:40:30;;;;;;;;;;;;;;;;;;5018513;28;4522;-59
2022/11/30 10:42:55;;;;;;;;;;;;;;;;;;5012883;28;4528;-60
2022/11/30 10:45:21;;;;;;;;;;;;;;;;;;5013566;28;4636;-58
2022/11/30 10:47:52;;;;;;;;;;;;;;;;;;5018924;28;6261;-58
2022/11/30 10:50:17;;;;;;;;;;;;;;;;;;5009951;28;4652;-60
2022/11/30 10:52:44;;;;;;;;;;;;;;;;;;5014826;28;4153;-61
2022/11/30 10:55:13;;;;;;;;;;;;;;;;;;5011711;28;4713;-61
2022/11/30 10:57:39;;;;;;;;;;;;;;;;;;5037264;28;4583;-60
2022/11/30 11:00:05;;;;;;;;;;;;;;;;;;5015492;28;5088;-61
2022/11/30 11:02:30;;;;;;;;;;;;;;;;;;5022983;28;5014;-61
2022/11/30 11:05:15;;;;;;;;;;;;;;;;;;5024840;28;3137;-60
2022/11/30 11:07:46;;;;;;;;;;;;;;;;;;5018607;28;4925;-61
2022/11/30 11:10:14;;;;;;;;;;;;;;;;;;5009281;28;4564;-63
2022/11/30 11:12:41;;;;;;;;;;;;;;;;;;5027684;28;4556;-62
2022/11/30 11:15:07;;;;;;;;;;;;;;;;;;5027524;28;5167;-63
2022/11/30 11:17:33;;;;;;;;;;;;;;;;;;5018231;28;4557;-65
2022/11/30 11:19:58;;;;;;;;;;;;;;;;;;5011184;28;3332;-63
2022/11/30 11:22:24;;;;;;;;;;;;;;;;;;5016081;28;4659;-61
2022/11/30 11:24:50;;;;;;;;;;;;;;;;;;5013319;28;5040;-61
2022/11/30 11:27:23;;;;;;;;;;;;;;;;;;5031824;28;4702;-62
2022/11/30 11:29:56;;;;;;;;;;;;;;;;;;5013953;28;5024;-63
2022/11/30 11:32:23;;;;;;;;;;;;;;;;;;5020135;28;4595;-64
2022/11/30 11:34:48;;;;;;;;;;;;;;;;;;5023617;28;3469;-64
2022/11/30 11:37:19;;;;;;;;;;;;;;;;;;5019808;28;5373;-62
2022/11/30 11:39:57;;;;;;;;;;;;;;;;;;5018819;28;4691;-60
2022/11/30 11:42:22;;;;;;;;;;;;;;;;;;5016321;28;4996;-72
2022/11/30 11:44:49;;;;;;;;;;;;;;;;;;5015436;28;5111;-66
2022/11/30 11:47:25;;;;;;;;;;;;;;;;;;5012272;28;3497;-65
2022/11/30 11:49:50;;;;;;;;;;;;;;;;;;5017232;28;5159;-69
2022/11/30 11:52:19;;;;;;;;;;;;;;;;;;5014993;28;5216;-64
2022/11/30 11:54:50;;;;;;;;;;;;;;;;;;5016779;28;5062;-67
2022/11/30 11:57:16;;;;;;;;;;;;;;;;;;5021077;28;5197;-67
2022/11/30 11:59:41;;;;;;;;;;;;;;;;;;5024593;28;4749;-64
2022/11/30 12:02:06;;;;;;;;;;;;;;;;;;5016799;28;1322;-65
2022/11/30 12:04:43;;;;;;;;;;;;;;;;;;5021373;28;4961;-66
2022/11/30 12:07:18;;;;;;;;;;;;;;;;;;5036389;28;4528;-65
2022/11/30 12:09:47;;;;;;;;;;;;;;;;;;5030263;28;5053;-66
2022/11/30 12:12:12;;;;;;;;;;;;;;;;;;5044248;28;5013;-64
2022/11/30 12:14:38;;;;;;;;;;;;;;;;;;5015440;28;4998;-66
2022/11/30 12:17:26;;;;;;;;;;;;;;;;;;5025212;28;2457;-66
2022/11/30 12:20:01;;;;;;;;;;;;;;;;;;5006799;28;4708;-65
2022/11/30 12:22:36;;;;;;;;;;;;;;;;;;5021285;28;5274;-66
2022/11/30 12:25:07;;;;;;;;;;;;;;;;;;5027353;28;5473;-66
2022/11/30 12:27:33;;;;;;;;;;;;;;;;;;5028369;28;5141;-66
2022/11/30 12:30:17;;;;;;;;;;;;;;;;;;5026262;28;5126;-66
2022/11/30 12:32:48;;;;;;;;;;;;;;;;;;5021775;28;5841;-66
2022/11/30 12:35:33;;;;;;;;;;;;;;;;;;5019883;28;1569;-66
2022/11/30 12:38:04;;;;;;;;;;;;;;;;;;5013173;28;5175;-66
2022/11/30 12:40:36;;;;;;;;;;;;;;;;;;5043014;28;5091;-67
2022/11/30 12:43:20;;;;;;;;;;;;;;;;;;5028900;28;4529;-65
2022/11/30 12:45:46;;;;;;;;;;;;;;;;;;5017043;28;5207;-66
2022/11/30 12:48:26;;;;;;;;;;;;;;;;;;5038904;28;5477;-66
2022/11/30 12:50:58;;;;;;;;;;;;;;;;;;5012926;28;5105;-65
2022/11/30 12:53:26;;;;;;;;;;;;;;;;;;5014517;28;5073;-66
2022/11/30 12:55:57;;;;;;;;;;;;;;;;;;5020199;28;3332;-67
2022/11/30 12:58:26;;;;;;;;;;;;;;;;;;5019453;28;4674;-66
2022/11/30 13:01:21;;;;;;;;;;;;;;;;;;5015810;28;5125;-66
2022/11/30 13:03:46;;;;;;;;;;;;;;;;;;5020366;28;5057;-66
2022/11/30 13:06:16;;;;;;;;;;;;;;;;;;5016432;28;5100;-66
2022/11/30 13:08:43;;;;;;;;;;;;;;;;;;5029481;28;5049;-65
2022/11/30 13:11:17;;;;;;;;;;;;;;;;;;5037829;28;2234;-66
2022/11/30 13:13:48;;;;;;;;;;;;;;;;;;5033546;28;4294;-65
2022/11/30 13:16:13;;;;;;;;;;;;;;;;;;5020000;28;5085;-66
2022/11/30 13:18:38;;;;;;;;;;;;;;;;;;5028403;28;4905;-66
2022/11/30 13:21:03;;;;;;;;;;;;;;;;;;5028172;28;5266;-66
2022/11/30 13:23:30;;;;;;;;;;;;;;;;;;5015465;28;5143;-66
2022/11/30 13:25:56;;;;;;;;;;;;;;;;;;5016210;28;3402;-66
2022/11/30 13:28:21;;;;;;;;;;;;;;;;;;5026255;28;4432;-66
2022/11/30 13:30:48;;;;;;;;;;;;;;;;;;5016400;28;5105;-67
2022/11/30 13:33:35;;;;;;;;;;;;;;;;;;5027378;28;5065;-66
2022/11/30 13:36:04;;;;;;;;;;;;;;;;;;5024868;28;5122;-66
2022/11/30 13:38:30;;;;;;;;;;;;;;;;;;5012616;28;5018;-66
2022/11/30 13:41:02;;;;;;;;;;;;;;;;;;5027768;28;1395;-66
2022/11/30 13:43:28;;;;;;;;;;;;;;;;;;5017909;28;5068;-66
2022/11/30 13:46:22;;;;;;;;;;;;;;;;;;5014476;28;5281;-66
2022/11/30 13:48:48;;;;;;;;;;;;;;;;;;5028277;28;5015;-66
2022/11/30 13:51:32;;;;;;;;;;;;;;;;;;5016187;28;5187;-66
2022/11/30 13:54:17;;;;;;;;;;;;;;;;;;5038533;28;5634;-66
2022/11/30 13:56:43;;;;;;;;;;;;;;;;;;5019086;28;4962;-66
2022/11/30 13:59:23;;;;;;;;;;;;;;;;;;5016864;28;3281;-66
2022/11/30 14:01:49;;;;;;;;;;;;;;;;;;5007794;28;4707;-67
2022/11/30 14:04:15;;;;;;;;;;;;;;;;;;5022631;28;5080;-66
2022/11/30 14:06:40;;;;;;;;;;;;;;;;;;5021214;28;5097;-67
2022/11/30 14:09:15;;;;;;;;;;;;;;;;;;5021986;28;5115;-67
2022/11/30 14:11:40;;;;;;;;;;;;;;;;;;5033701;28;4717;-66
2022/11/30 14:14:24;;;;;;;;;;;;;;;;;;5021790;28;1501;-66
2022/11/30 14:16:49;;;;;;;;;;;;;;;;;;5034426;28;4612;-67
2022/11/30 14:19:15;;;;;;;;;;;;;;;;;;5019125;28;4535;-66
2022/11/30 14:21:40;;;;;;;;;;;;;;;;;;5012985;28;4876;-66
2022/11/30 14:24:21;;;;;;;;;;;;;;;;;;5038252;28;4964;-66
2022/11/30 14:26:47;;;;;;;;;;;;;;;;;;5027235;28;4532;-66
2022/11/30 14:29:15;;;;;;;;;;;;;;;;;;5021294;28;3373;-66
2022/11/30 14:31:47;;;;;;;;;;;;;;;;;;5016532;28;4949;-66
2022/11/30 14:34:15;;;;;;;;;;;;;;;;;;5011825;28;4711;-66
2022/11/30 14:36:41;;;;;;;;;;;;;;;;;;5017410;28;4904;-66
2022/11/30 14:39:21;;;;;;;;;;;;;;;;;;5028824;28;5149;-66
2022/11/30 14:41:47;;;;;;;;;;;;;;;;;;5027339;28;4724;-66
2022/11/30 14:44:12;;;;;;;;;;;;;;;;;;5016789;28;3173;-67
2022/11/30 14:46:38;;;;;;;;;;;;;;;;;;5026980;28;4457;-66
2022/11/30 14:49:22;;;;;;;;;;;;;;;;;;5021608;28;6558;-67
2022/11/30 14:51:48;;;;;;;;;;;;;;;;;;5026015;28;5080;-66
2022/11/30 14:54:19;;;;;;;;;;;;;;;;;;5038366;28;5080;-66
2022/11/30 14:56:48;;;;;;;;;;;;;;;;;;5037500;28;4765;-66
2022/11/30 14:59:22;;;;;;;;;;;;;;;;;;5037327;28;1059;-66
2022/11/30 15:01:48;;;;;;;;;;;;;;;;;;5023136;28;5045;-66
2022/11/30 15:04:13;;;;;;;;;;;;;;;;;;5023497;28;5116;-66
2022/11/30 15:06:39;;;;;;;;;;;;;;;;;;5032223;28;4952;-67
2022/11/30 15:09:04;;;;;;;;;;;;;;;;;;5020842;28;4981;-66
2022/11/30 15:11:29;;;;;;;;;;;;;;;;;;5036891;28;5158;-67
2022/11/30 15:13:56;;;;;;;;;;;;;;;;;;5028720;28;1511;-67
2022/11/30 15:16:24;;;;;;;;;;;;;;;;;;5028365;28;5094;-67
2022/11/30 15:18:49;;;;;;;;;;;;;;;;;;5025721;28;4874;-66
2022/11/30 15:21:16;;;;;;;;;;;;;;;;;;5033844;28;4608;-66
2022/11/30 15:23:42;;;;;;;;;;;;;;;;;;5046073;28;5116;-67
2022/11/30 15:26:12;;;;;;;;;;;;;;;;;;5040759;28;3136;-66
2022/11/30 15:28:38;;;;;;;;;;;;;;;;;;5026692;28;4910;-66
2022/11/30 15:31:04;;;;;;;;;;;;;;;;;;5033397;28;5150;-66
2022/11/30 15:33:31;;;;;;;;;;;;;;;;;;5022136;28;4857;-66
2022/11/30 15:35:57;;;;;;;;;;;;;;;;;;5014481;28;4931;-66
2022/11/30 15:38:25;;;;;;;;;;;;;;;;;;5022481;28;5060;-67
2022/11/30 15:40:51;;;;;;;;;;;;;;;;;;5019864;28;3704;-67
2022/11/30 15:43:22;;;;;;;;;;;;;;;;;;5025110;28;5010;-66
2022/11/30 15:45:52;;;;;;;;;;;;;;;;;;5037868;28;5066;-67
2022/11/30 15:48:26;;;;;;;;;;;;;;;;;;5025798;28;5031;-66
2022/11/30 15:50:51;;;;;;;;;;;;;;;;;;5028630;28;5722;-67
2022/11/30 15:53:21;;;;;;;;;;;;;;;;;;5039176;28;4586;-66
2022/11/30 15:55:47;;;;;;;;;;;;;;;;;;5028122;28;4537;-66
2022/11/30 15:58:31;;;;;;;;;;;;;;;;;;5027612;28;5304;-67
2022/11/30 16:00:59;;;;;;;;;;;;;;;;;;5026070;28;5051;-67
2022/11/30 16:03:24;;;;;;;;;;;;;;;;;;5029377;28;4497;-67
2022/11/30 16:05:56;;;;;;;;;;;;;;;;;;5042906;28;4724;-66
2022/11/30 16:08:21;;;;;;;;;;;;;;;;;;5046060;28;5126;-67
2022/11/30 16:10:47;;;;;;;;;;;;;;;;;;5020933;28;3549;-66
2022/11/30 16:13:12;;;;;;;;;;;;;;;;;;5004840;28;4845;-66
2022/11/30 16:15:38;;;;;;;;;;;;;;;;;;5024320;28;4939;-68
2022/11/30 16:18:12;;;;;;;;;;;;;;;;;;5020956;28;4557;-66
2022/11/30 16:20:39;;;;;;;;;;;;;;;;;;5026273;28;4679;-66
2022/11/30 16:23:04;;;;;;;;;;;;;;;;;;5021639;28;1465;-67
2022/11/30 16:25:30;;;;;;;;;;;;;;;;;;5027919;28;4608;-67
2022/11/30 16:27:55;;;;;;;;;;;;;;;;;;5016679;28;5124;-67
2022/11/30 16:30:21;;;;;;;;;;;;;;;;;;5019910;28;5056;-67
2022/11/30 16:32:46;;;;;;;;;;;;;;;;;;5019143;28;5035;-67
2022/11/30 16:35:16;;;;;;;;;;;;;;;;;;5031430;28;1124;-67
2022/11/30 16:37:41;;;;;;;;;;;;;;;;;;5028105;28;4845;-67
2022/11/30 16:40:06;;;;;;;;;;;;;;;;;;5008279;28;5094;-67
2022/11/30 16:42:31;;;;;;;;;;;;;;;;;;5012321;28;5150;-67
2022/11/30 16:44:57;;;;;;;;;;;;;;;;;;5022549;28;5013;-66
2022/11/30 16:47:22;;;;;;;;;;;;;;;;;;5011384;28;5127;-67
2022/11/30 16:49:47;;;;;;;;;;;;;;;;;;5027276;28;3168;-66
2022/11/30 16:52:13;;;;;;;;;;;;;;;;;;5024224;28;5025;-67
2022/11/30 16:54:39;;;;;;;;;;;;;;;;;;5031177;28;5144;-67
2022/11/30 16:57:04;;;;;;;;;;;;;;;;;;5027099;28;5363;-67
2022/11/30 16:59:29;;;;;;;;;;;;;;;;;;5020899;28;5464;-67
2022/11/30 17:01:54;;;;;;;;;;;;;;;;;;5028493;28;1624;-67
2022/11/30 17:04:23;;;;;;;;;;;;;;;;;;5029432;28;5012;-67
2022/11/30 17:06:48;;;;;;;;;;;;;;;;;;5027880;28;5124;-67